sensor_id;sensor_type;location;lat;lon;timestamp;pressure;altitude;pressure_sealevel;temperature;humidity
19751;BME280;4663;49.120;9.730;2022-10-16T00:01:22;97935.78;;;11.88;100.00
19751;BME280;4663;49.120;9.730;2022-10-16T00:03:48;97937.19;;;11.84;100.00
19751;BME280;4663;49.120;9.730;2022-10-16T00:06:16;97940.47;;;11.79;100.00
19751;BME280;4663;49.120;9.730;2022-10-16T00:08:42;97944.72;;;11.88;100.00
19751;BME280;4663;49.120;9.730;2022-10-16T00:13:40;97942.59;;;11.84;100.00
19751;BME280;4663;49.120;9.730;2022-10-16T00:16:06;97949.09;;;11.89;100.00
19751;BME280;4663;49.120;9.730;2022-10-16T00:18:32;97938.13;;;11.98;100.00
19751;BME280;4663;49.120;9.730;2022-10-16T00:21:13;97934.00;;;12.02;100.00
19751;BME280;4663;49.120;9.730;2022-10-16T00:23:40;97937.63;;;11.87;100.00
19751;BME280;4663;49.120;9.730;2022-10-16T00:26:08;97950.75;;;11.90;100.00
19751;BME280;4663;49.120;9.730;2022-10-16T00:28:35;97939.94;;;11.90;100.00
19751;BME280;4663;49.120;9.730;2022-10-16T00:31:08;97941.22;;;11.94;100.00
19751;BME280;4663;49.120;9.730;2022-10-16T00:33:35;97940.63;;;11.99;100.00
19751;BME280;4663;49.120;9.730;2022-10-16T00:36:02;97936.75;;;12.09;100.00
19751;BME280;4663;49.120;9.730;2022-10-16T00:38:28;97930.72;;;12.06;100.00
19751;BME280;4663;49.120;9.730;2022-10-16T00:40:53;97934.00;;;12.02;100.00
19751;BME280;4663;49.120;9.730;2022-10-16T00:46:01;97937.13;;;12.05;100.00
19751;BME280;4663;49.120;9.730;2022-10-16T00:48:28;97932.75;;;12.04;100.00
19751;BME280;4663;49.120;9.730;2022-10-16T00:50:54;97929.44;;;12.02;100.00
19751;BME280;4663;49.120;9.730;2022-10-16T00:53:19;97932.06;;;11.96;100.00
19751;BME280;4663;49.120;9.730;2022-10-16T00:55:46;97941.56;;;11.85;100.00
19751;BME280;4663;49.120;9.730;2022-10-16T00:58:12;97945.88;;;11.79;100.00
19751;BME280;4663;49.120;9.730;2022-10-16T01:00:37;97949.28;;;11.88;100.00
19751;BME280;4663;49.120;9.730;2022-10-16T01:03:21;97941.13;;;11.81;100.00
19751;BME280;4663;49.120;9.730;2022-10-16T01:05:51;97952.44;;;11.91;100.00
19751;BME280;4663;49.120;9.730;2022-10-16T01:08:28;97958.91;;;11.97;100.00
19751;BME280;4663;49.120;9.730;2022-10-16T01:11:01;97953.34;;;12.05;100.00
19751;BME280;4663;49.120;9.730;2022-10-16T01:13:35;97954.09;;;12.14;100.00
19751;BME280;4663;49.120;9.730;2022-10-16T01:18:45;97941.41;;;11.93;100.00
19751;BME280;4663;49.120;9.730;2022-10-16T01:21:34;97952.22;;;11.93;100.00
19751;BME280;4663;49.120;9.730;2022-10-16T01:27:15;97958.28;;;11.95;100.00
19751;BME280;4663;49.120;9.730;2022-10-16T01:29:56;97946.25;;;11.98;100.00
19751;BME280;4663;49.120;9.730;2022-10-16T01:35:04;97943.72;;;11.96;100.00
19751;BME280;4663;49.120;9.730;2022-10-16T01:37:37;97955.78;;;11.93;100.00
19751;BME280;4663;49.120;9.730;2022-10-16T01:40:09;97949.09;;;11.89;100.00
19751;BME280;4663;49.120;9.730;2022-10-16T01:42:41;97963.81;;;12.09;100.00
19751;BME280;4663;49.120;9.730;2022-10-16T01:45:09;97957.91;;;11.98;100.00
19751;BME280;4663;49.120;9.730;2022-10-16T01:47:37;97961.31;;;12.07;100.00
19751;BME280;4663;49.120;9.730;2022-10-16T01:50:05;97941.31;;;12.08;100.00
19751;BME280;4663;49.120;9.730;2022-10-16T01:52:34;97931.59;;;12.14;100.00
19751;BME280;4663;49.120;9.730;2022-10-16T01:55:04;97942.63;;;12.12;100.00
19751;BME280;4663;49.120;9.730;2022-10-16T01:57:32;97938.56;;;12.01;100.00
19751;BME280;4663;49.120;9.730;2022-10-16T02:00:05;97930.13;;;12.11;100.00
19751;BME280;4663;49.120;9.730;2022-10-16T02:02:32;97945.34;;;11.90;100.00
19751;BME280;4663;49.120;9.730;2022-10-16T02:05:25;97961.81;;;11.96;100.00
19751;BME280;4663;49.120;9.730;2022-10-16T02:07:49;97952.44;;;11.91;100.00
19751;BME280;4663;49.120;9.730;2022-10-16T02:10:14;97953.13;;;12.00;100.00
19751;BME280;4663;49.120;9.730;2022-10-16T02:12:44;97958.88;;;11.90;100.00
19751;BME280;4663;49.120;9.730;2022-10-16T02:15:11;97960.09;;;11.88;100.00
19751;BME280;4663;49.120;9.730;2022-10-16T02:17:36;97964.53;;;11.96;100.00
19751;BME280;4663;49.120;9.730;2022-10-16T02:20:02;97958.50;;;11.93;100.00
19751;BME280;4663;49.120;9.730;2022-10-16T02:22:32;97960.31;;;11.86;100.00
19751;BME280;4663;49.120;9.730;2022-10-16T02:25:15;97962.81;;;11.88;100.00
19751;BME280;4663;49.120;9.730;2022-10-16T02:30:36;97953.41;;;11.84;100.00
19751;BME280;4663;49.120;9.730;2022-10-16T02:33:07;97940.84;;;11.98;100.00
19751;BME280;4663;49.120;9.730;2022-10-16T02:35:35;97955.03;;;11.78;100.00
19751;BME280;4663;49.120;9.730;2022-10-16T02:38:01;97955.09;;;11.85;100.00
19751;BME280;4663;49.120;9.730;2022-10-16T02:40:27;97953.22;;;11.85;100.00
19751;BME280;4663;49.120;9.730;2022-10-16T02:42:54;97957.59;;;11.86;100.00
19751;BME280;4663;49.120;9.730;2022-10-16T02:45:20;97961.97;;;11.87;100.00
19751;BME280;4663;49.120;9.730;2022-10-16T02:47:46;97963.00;;;11.86;100.00
19751;BME280;4663;49.120;9.730;2022-10-16T02:50:11;97964.47;;;11.89;100.00
19751;BME280;4663;49.120;9.730;2022-10-16T02:52:37;97964.97;;;11.99;100.00
19751;BME280;4663;49.120;9.730;2022-10-16T02:55:02;97969.31;;;11.93;100.00
19751;BME280;4663;49.120;9.730;2022-10-16T02:57:27;97965.06;;;11.84;100.00
19751;BME280;4663;49.120;9.730;2022-10-16T02:59:53;97969.06;;;11.88;100.00
19751;BME280;4663;49.120;9.730;2022-10-16T03:02:18;97965.53;;;11.88;100.00
19751;BME280;4663;49.120;9.730;2022-10-16T03:04:44;97952.94;;;12.02;100.00
19751;BME280;4663;49.120;9.730;2022-10-16T03:07:09;97955.41;;;11.97;100.00
19751;BME280;4663;49.120;9.730;2022-10-16T03:09:35;97955.59;;;11.95;100.00
19751;BME280;4663;49.120;9.730;2022-10-16T03:12:00;97964.28;;;11.90;100.00
19751;BME280;4663;49.120;9.730;2022-10-16T03:14:26;97964.44;;;11.82;100.00
19751;BME280;4663;49.120;9.730;2022-10-16T03:16:51;97972.16;;;11.85;100.00
19751;BME280;4663;49.120;9.730;2022-10-16T03:19:17;97967.53;;;11.79;100.00
19751;BME280;4663;49.120;9.730;2022-10-16T03:21:43;97968.38;;;11.79;100.00
19751;BME280;4663;49.120;9.730;2022-10-16T03:24:09;97960.50;;;11.85;100.00
19751;BME280;4663;49.120;9.730;2022-10-16T03:26:34;97964.63;;;11.80;100.00
19751;BME280;4663;49.120;9.730;2022-10-16T03:29:00;97959.78;;;11.76;100.00
19751;BME280;4663;49.120;9.730;2022-10-16T03:31:27;97958.97;;;11.75;100.00
19751;BME280;4663;49.120;9.730;2022-10-16T03:33:52;97956.31;;;11.82;100.00
19751;BME280;4663;49.120;9.730;2022-10-16T03:36:18;97965.41;;;11.74;100.00
19751;BME280;4663;49.120;9.730;2022-10-16T03:38:43;97959.97;;;11.74;100.00
19751;BME280;4663;49.120;9.730;2022-10-16T03:41:09;97957.84;;;11.91;100.00
19751;BME280;4663;49.120;9.730;2022-10-16T03:43:34;97959.75;;;11.98;100.00
19751;BME280;4663;49.120;9.730;2022-10-16T03:45:59;97963.25;;;11.91;100.00
19751;BME280;4663;49.120;9.730;2022-10-16T03:48:25;97961.78;;;11.89;100.00
19751;BME280;4663;49.120;9.730;2022-10-16T03:50:50;97961.41;;;11.70;100.00
19751;BME280;4663;49.120;9.730;2022-10-16T03:53:16;97965.84;;;11.56;100.00
19751;BME280;4663;49.120;9.730;2022-10-16T03:55:43;97974.38;;;11.53;100.00
19751;BME280;4663;49.120;9.730;2022-10-16T03:58:08;97980.94;;;11.44;100.00
19751;BME280;4663;49.120;9.730;2022-10-16T04:00:34;97979.13;;;11.29;100.00
19751;BME280;4663;49.120;9.730;2022-10-16T04:03:00;97976.44;;;11.29;100.00
19751;BME280;4663;49.120;9.730;2022-10-16T04:05:25;97975.97;;;11.25;100.00
19751;BME280;4663;49.120;9.730;2022-10-16T04:07:50;97983.25;;;11.25;100.00
19751;BME280;4663;49.120;9.730;2022-10-16T04:10:16;97978.22;;;11.22;100.00
19751;BME280;4663;49.120;9.730;2022-10-16T04:12:41;97982.94;;;11.35;100.00
19751;BME280;4663;49.120;9.730;2022-10-16T04:15:07;97977.44;;;11.28;100.00
19751;BME280;4663;49.120;9.730;2022-10-16T04:17:33;97977.44;;;11.28;100.00
19751;BME280;4663;49.120;9.730;2022-10-16T04:19:58;97979.63;;;11.18;100.00
19751;BME280;4663;49.120;9.730;2022-10-16T04:22:24;97978.72;;;11.10;100.00
19751;BME280;4663;49.120;9.730;2022-10-16T04:24:49;97992.25;;;11.32;100.00
19751;BME280;4663;49.120;9.730;2022-10-16T04:27:14;97984.59;;;11.36;100.00
19751;BME280;4663;49.120;9.730;2022-10-16T04:29:40;97984.44;;;11.22;100.00
19751;BME280;4663;49.120;9.730;2022-10-16T04:32:08;97978.44;;;11.05;100.00
19751;BME280;4663;49.120;9.730;2022-10-16T04:34:34;97988.31;;;10.98;100.00
19751;BME280;4663;49.120;9.730;2022-10-16T04:37:00;97999.13;;;10.98;100.00
19751;BME280;4663;49.120;9.730;2022-10-16T04:39:25;98006.19;;;10.99;100.00
19751;BME280;4663;49.120;9.730;2022-10-16T04:41:50;98005.91;;;11.09;100.00
19751;BME280;4663;49.120;9.730;2022-10-16T04:44:16;98002.78;;;11.27;100.00
19751;BME280;4663;49.120;9.730;2022-10-16T04:46:46;98005.19;;;11.15;100.00
19751;BME280;4663;49.120;9.730;2022-10-16T04:49:11;98008.56;;;11.24;100.00
19751;BME280;4663;49.120;9.730;2022-10-16T04:51:36;98007.94;;;11.22;100.00
19751;BME280;4663;49.120;9.730;2022-10-16T04:54:02;98016.97;;;11.14;100.00
19751;BME280;4663;49.120;9.730;2022-10-16T04:56:27;98023.78;;;11.25;100.00
19751;BME280;4663;49.120;9.730;2022-10-16T04:58:52;98029.28;;;11.16;100.00
19751;BME280;4663;49.120;9.730;2022-10-16T05:01:18;98023.88;;;11.16;100.00
19751;BME280;4663;49.120;9.730;2022-10-16T05:03:43;98029.19;;;11.25;100.00
19751;BME280;4663;49.120;9.730;2022-10-16T05:06:09;98027.91;;;11.21;100.00
19751;BME280;4663;49.120;9.730;2022-10-16T05:08:34;98034.69;;;11.16;100.00
19751;BME280;4663;49.120;9.730;2022-10-16T05:10:59;98036.00;;;11.21;100.00
19751;BME280;4663;49.120;9.730;2022-10-16T05:13:25;98023.31;;;11.06;100.00
19751;BME280;4663;49.120;9.730;2022-10-16T05:15:50;98025.94;;;11.14;100.00
19751;BME280;4663;49.120;9.730;2022-10-16T05:18:16;98029.34;;;11.08;100.00
19751;BME280;4663;49.120;9.730;2022-10-16T05:20:42;98036.56;;;11.01;100.00
19751;BME280;4663;49.120;9.730;2022-10-16T05:23:07;98019.03;;;10.97;100.00
19751;BME280;4663;49.120;9.730;2022-10-16T05:25:35;98034.22;;;10.98;100.00
19751;BME280;4663;49.120;9.730;2022-10-16T05:28:01;98047.19;;;10.87;100.00
19751;BME280;4663;49.120;9.730;2022-10-16T05:30:26;98041.50;;;10.97;100.00
19751;BME280;4663;49.120;9.730;2022-10-16T05:32:51;98046.25;;;11.10;100.00
19751;BME280;4663;49.120;9.730;2022-10-16T05:35:18;98041.31;;;11.14;100.00
19751;BME280;4663;49.120;9.730;2022-10-16T05:37:44;98041.97;;;11.16;100.00
19751;BME280;4663;49.120;9.730;2022-10-16T05:40:10;98048.00;;;11.18;100.00
19751;BME280;4663;49.120;9.730;2022-10-16T05:42:35;98042.78;;;11.16;100.00
19751;BME280;4663;49.120;9.730;2022-10-16T05:45:01;98037.84;;;11.05;100.00
19751;BME280;4663;49.120;9.730;2022-10-16T05:47:26;98033.28;;;11.06;100.00
19751;BME280;4663;49.120;9.730;2022-10-16T05:49:52;98027.78;;;10.99;100.00
19751;BME280;4663;49.120;9.730;2022-10-16T05:52:18;98031.53;;;10.98;100.00
19751;BME280;4663;49.120;9.730;2022-10-16T05:54:43;98046.88;;;11.12;100.00
19751;BME280;4663;49.120;9.730;2022-10-16T05:57:09;98046.03;;;11.27;100.00
19751;BME280;4663;49.120;9.730;2022-10-16T05:59:34;98052.47;;;11.26;100.00
19751;BME280;4663;49.120;9.730;2022-10-16T06:02:00;98048.81;;;11.34;100.00
19751;BME280;4663;49.120;9.730;2022-10-16T06:04:25;98053.75;;;11.30;100.00
19751;BME280;4663;49.120;9.730;2022-10-16T06:06:50;98049.19;;;11.31;100.00
19751;BME280;4663;49.120;9.730;2022-10-16T06:09:16;98057.75;;;11.34;100.00
19751;BME280;4663;49.120;9.730;2022-10-16T06:11:41;98053.75;;;11.30;100.00
19751;BME280;4663;49.120;9.730;2022-10-16T06:14:08;98062.97;;;11.36;100.00
19751;BME280;4663;49.120;9.730;2022-10-16T06:16:35;98068.22;;;11.22;100.00
19751;BME280;4663;49.120;9.730;2022-10-16T06:19:02;98065.59;;;11.29;100.00
19751;BME280;4663;49.120;9.730;2022-10-16T06:21:31;98060.19;;;11.29;100.00
19751;BME280;4663;49.120;9.730;2022-10-16T06:23:57;98067.38;;;11.22;100.00
19751;BME280;4663;49.120;9.730;2022-10-16T06:26:25;98085.72;;;11.26;100.00
19751;BME280;4663;49.120;9.730;2022-10-16T06:28:51;98074.72;;;11.28;100.00
19751;BME280;4663;49.120;9.730;2022-10-16T06:31:16;98081.88;;;11.36;100.00
19751;BME280;4663;49.120;9.730;2022-10-16T06:33:42;98076.00;;;11.32;100.00
19751;BME280;4663;49.120;9.730;2022-10-16T06:36:10;98080.47;;;11.40;100.00
19751;BME280;4663;49.120;9.730;2022-10-16T06:38:36;98083.81;;;11.42;100.00
19751;BME280;4663;49.120;9.730;2022-10-16T06:41:01;98082.53;;;11.38;100.00
19751;BME280;4663;49.120;9.730;2022-10-16T06:43:29;98098.84;;;11.45;100.00
19751;BME280;4663;49.120;9.730;2022-10-16T06:45:57;98099.28;;;11.48;100.00
19751;BME280;4663;49.120;9.730;2022-10-16T06:48:23;98103.03;;;11.47;100.00
19751;BME280;4663;49.120;9.730;2022-10-16T06:51:00;98099.47;;;11.47;100.00
19751;BME280;4663;49.120;9.730;2022-10-16T06:53:27;98088.28;;;11.50;100.00
19751;BME280;4663;49.120;9.730;2022-10-16T06:55:53;98081.28;;;11.55;100.00
19751;BME280;4663;49.120;9.730;2022-10-16T06:58:19;98087.72;;;11.54;100.00
19751;BME280;4663;49.120;9.730;2022-10-16T07:00:45;98093.81;;;11.63;100.00
19751;BME280;4663;49.120;9.730;2022-10-16T07:03:11;98095.31;;;11.66;100.00
19751;BME280;4663;49.120;9.730;2022-10-16T07:05:40;98105.44;;;11.79;100.00
19751;BME280;4663;49.120;9.730;2022-10-16T07:08:06;98110.66;;;11.80;100.00
19751;BME280;4663;49.120;9.730;2022-10-16T07:10:32;98116.06;;;11.80;100.00
19751;BME280;4663;49.120;9.730;2022-10-16T07:12:58;98121.53;;;11.87;100.00
19751;BME280;4663;49.120;9.730;2022-10-16T07:15:24;98125.72;;;11.90;100.00
19751;BME280;4663;49.120;9.730;2022-10-16T07:17:50;98132.31;;;12.02;100.00
19751;BME280;4663;49.120;9.730;2022-10-16T07:20:15;98130.72;;;12.08;100.00
19751;BME280;4663;49.120;9.730;2022-10-16T07:22:41;98128.00;;;12.08;100.00
19751;BME280;4663;49.120;9.730;2022-10-16T07:25:06;98140.19;;;12.19;100.00
19751;BME280;4663;49.120;9.730;2022-10-16T07:27:32;98143.59;;;12.28;100.00
19751;BME280;4663;49.120;9.730;2022-10-16T07:29:57;98141.09;;;12.26;100.00
19751;BME280;4663;49.120;9.730;2022-10-16T07:32:22;98148.63;;;12.31;100.00
19751;BME280;4663;49.120;9.730;2022-10-16T07:34:50;98158.75;;;12.44;100.00
19751;BME280;4663;49.120;9.730;2022-10-16T07:37:16;98160.25;;;12.53;100.00
19751;BME280;4663;49.120;9.730;2022-10-16T07:39:41;98157.22;;;12.63;100.00
19751;BME280;4663;49.120;9.730;2022-10-16T07:42:07;98162.28;;;12.73;100.00
19751;BME280;4663;49.120;9.730;2022-10-16T07:44:32;98157.16;;;12.56;100.00
19751;BME280;4663;49.120;9.730;2022-10-16T07:46:58;98160.88;;;12.77;100.00
19751;BME280;4663;49.120;9.730;2022-10-16T07:49:24;98159.09;;;12.91;100.00
19751;BME280;4663;49.120;9.730;2022-10-16T07:51:49;98171.19;;;12.95;99.12
19751;BME280;4663;49.120;9.730;2022-10-16T07:54:15;98163.56;;;12.99;99.02
19751;BME280;4663;49.120;9.730;2022-10-16T07:56:40;98170.34;;;12.88;98.94
19751;BME280;4663;49.120;9.730;2022-10-16T07:59:06;98178.03;;;12.91;99.30
19751;BME280;4663;49.120;9.730;2022-10-16T08:01:31;98167.31;;;12.76;99.37
19751;BME280;4663;49.120;9.730;2022-10-16T08:03:56;98169.44;;;12.81;99.49
19751;BME280;4663;49.120;9.730;2022-10-16T08:06:22;98180.03;;;12.76;99.82
19751;BME280;4663;49.120;9.730;2022-10-16T08:08:48;98179.81;;;12.77;99.83
19751;BME280;4663;49.120;9.730;2022-10-16T08:11:13;98190.59;;;12.70;100.00
19751;BME280;4663;49.120;9.730;2022-10-16T08:13:40;98191.31;;;12.79;100.00
19751;BME280;4663;49.120;9.730;2022-10-16T08:16:06;98191.69;;;12.76;100.00
19751;BME280;4663;49.120;9.730;2022-10-16T08:18:37;98192.69;;;12.68;100.00
19751;BME280;4663;49.120;9.730;2022-10-16T08:21:03;98195.22;;;12.70;100.00
19751;BME280;4663;49.120;9.730;2022-10-16T08:23:29;98203.38;;;12.55;100.00
19751;BME280;4663;49.120;9.730;2022-10-16T08:25:55;98188.44;;;12.59;100.00
19751;BME280;4663;49.120;9.730;2022-10-16T08:28:22;98196.81;;;12.64;100.00
19751;BME280;4663;49.120;9.730;2022-10-16T08:30:48;98188.84;;;12.56;100.00
19751;BME280;4663;49.120;9.730;2022-10-16T08:33:13;98193.22;;;12.57;100.00
19751;BME280;4663;49.120;9.730;2022-10-16T08:35:38;98194.31;;;12.63;100.00
19751;BME280;4663;49.120;9.730;2022-10-16T08:38:04;98188.03;;;12.84;100.00
19751;BME280;4663;49.120;9.730;2022-10-16T08:40:32;98179.63;;;13.01;100.00
19751;BME280;4663;49.120;9.730;2022-10-16T08:45:47;98194.84;;;13.37;99.67
19751;BME280;4663;49.120;9.730;2022-10-16T08:50:45;98198.88;;;13.55;98.59
19751;BME280;4663;49.120;9.730;2022-10-16T08:53:17;98191.00;;;13.67;97.40
19751;BME280;4663;49.120;9.730;2022-10-16T08:55:46;98202.34;;;13.84;98.14
19751;BME280;4663;49.120;9.730;2022-10-16T08:58:18;98202.63;;;13.96;97.58
19751;BME280;4663;49.120;9.730;2022-10-16T09:00:47;98209.56;;;13.63;97.19
19751;BME280;4663;49.120;9.730;2022-10-16T09:12:10;98221.00;;;14.01;96.31
19751;BME280;4663;49.120;9.730;2022-10-16T09:20:53;98210.63;;;14.24;96.18
19751;BME280;4663;49.120;9.730;2022-10-16T09:23:30;98216.94;;;14.45;96.52
19751;BME280;4663;49.120;9.730;2022-10-16T09:25:58;98225.72;;;14.61;96.52
19751;BME280;4663;49.120;9.730;2022-10-16T09:28:24;98219.28;;;14.89;95.54
19751;BME280;4663;49.120;9.730;2022-10-16T09:30:50;98220.75;;;14.98;94.25
19751;BME280;4663;49.120;9.730;2022-10-16T09:33:18;98226.19;;;14.98;93.18
19751;BME280;4663;49.120;9.730;2022-10-16T09:35:47;98221.13;;;15.09;93.66
19751;BME280;4663;49.120;9.730;2022-10-16T09:40:50;98233.91;;;15.15;94.78
19751;BME280;4663;49.120;9.730;2022-10-16T09:45:54;98228.25;;;15.10;93.06
19751;BME280;4663;49.120;9.730;2022-10-16T09:48:20;98241.84;;;15.23;96.29
19751;BME280;4663;49.120;9.730;2022-10-16T09:50:55;98242.00;;;15.35;94.14
19751;BME280;4663;49.120;9.730;2022-10-16T09:53:21;98241.34;;;15.47;93.29
19751;BME280;4663;49.120;9.730;2022-10-16T09:55:52;98232.34;;;15.53;92.85
19751;BME280;4663;49.120;9.730;2022-10-16T09:58:21;98234.13;;;16.39;93.76
19751;BME280;4663;49.120;9.730;2022-10-16T10:00:53;98236.22;;;16.37;90.87
19751;BME280;4663;49.120;9.730;2022-10-16T10:03:33;98242.06;;;16.73;91.04
19751;BME280;4663;49.120;9.730;2022-10-16T10:06:13;98242.38;;;16.58;88.75
19751;BME280;4663;49.120;9.730;2022-10-16T10:08:41;98253.06;;;16.85;91.26
19751;BME280;4663;49.120;9.730;2022-10-16T10:11:06;98248.78;;;16.70;90.13
19751;BME280;4663;49.120;9.730;2022-10-16T10:13:32;98262.66;;;16.94;92.43
19751;BME280;4663;49.120;9.730;2022-10-16T10:15:57;98258.03;;;17.83;91.53
19751;BME280;4663;49.120;9.730;2022-10-16T10:18:22;98261.25;;;18.60;89.21
19751;BME280;4663;49.120;9.730;2022-10-16T10:21:02;98255.25;;;18.94;85.30
19751;BME280;4663;49.120;9.730;2022-10-16T10:23:29;98266.47;;;19.04;81.41
19751;BME280;4663;49.120;9.730;2022-10-16T10:28:55;98263.31;;;18.46;83.03
19751;BME280;4663;49.120;9.730;2022-10-16T10:37:04;98260.31;;;19.45;76.53
19751;BME280;4663;49.120;9.730;2022-10-16T10:39:46;98264.25;;;20.02;81.34
19751;BME280;4663;49.120;9.730;2022-10-16T10:48:05;98248.31;;;20.57;76.13
19751;BME280;4663;49.120;9.730;2022-10-16T10:50:56;98264.06;;;20.96;74.58
19751;BME280;4663;49.120;9.730;2022-10-16T11:01:55;98258.84;;;21.29;73.78
19751;BME280;4663;49.120;9.730;2022-10-16T11:07:13;98253.00;;;20.74;75.34
19751;BME280;4663;49.120;9.730;2022-10-16T11:09:44;98249.84;;;20.36;71.15
19751;BME280;4663;49.120;9.730;2022-10-16T11:12:16;98255.03;;;20.20;73.93
19751;BME280;4663;49.120;9.730;2022-10-16T11:14:53;98265.44;;;20.06;77.10
19751;BME280;4663;49.120;9.730;2022-10-16T11:17:31;98254.75;;;19.93;76.65
19751;BME280;4663;49.120;9.730;2022-10-16T11:23:11;98256.16;;;19.42;76.35
19751;BME280;4663;49.120;9.730;2022-10-16T11:25:40;98254.59;;;19.34;77.11
19751;BME280;4663;49.120;9.730;2022-10-16T11:30:57;98245.53;;;19.22;76.48
19751;BME280;4663;49.120;9.730;2022-10-16T11:36:15;98248.38;;;19.15;79.65
19751;BME280;4663;49.120;9.730;2022-10-16T11:38:51;98256.00;;;19.01;83.14
19751;BME280;4663;49.120;9.730;2022-10-16T11:41:35;98247.91;;;19.06;80.56
19751;BME280;4663;49.120;9.730;2022-10-16T11:44:42;98255.41;;;19.11;79.94
19751;BME280;4663;49.120;9.730;2022-10-16T11:49:41;98248.88;;;19.48;79.48
19751;BME280;4663;49.120;9.730;2022-10-16T11:57:26;98231.13;;;19.15;76.01
19751;BME280;4663;49.120;9.730;2022-10-16T12:00:00;98235.41;;;18.98;78.30
19751;BME280;4663;49.120;9.730;2022-10-16T12:05:17;98245.50;;;18.98;81.92
19751;BME280;4663;49.120;9.730;2022-10-16T12:08:11;98243.97;;;19.26;82.90
19751;BME280;4663;49.120;9.730;2022-10-16T12:10:39;98242.78;;;19.22;83.10
19751;BME280;4663;49.120;9.730;2022-10-16T12:18:38;98241.44;;;18.77;78.28
19751;BME280;4663;49.120;9.730;2022-10-16T12:21:04;98238.56;;;18.59;79.15
19751;BME280;4663;49.120;9.730;2022-10-16T12:23:32;98237.44;;;18.48;80.69
19751;BME280;4663;49.120;9.730;2022-10-16T12:26:01;98241.50;;;18.27;81.09
19751;BME280;4663;49.120;9.730;2022-10-16T12:28:29;98267.06;;;18.02;84.36
19751;BME280;4663;49.120;9.730;2022-10-16T12:31:02;98243.31;;;18.03;82.05
19751;BME280;4663;49.120;9.730;2022-10-16T12:33:30;98245.75;;;18.11;81.65
19751;BME280;4663;49.120;9.730;2022-10-16T12:35:58;98245.41;;;17.89;83.09
19751;BME280;4663;49.120;9.730;2022-10-16T12:38:25;98245.41;;;17.89;84.31
19751;BME280;4663;49.120;9.730;2022-10-16T12:41:01;98251.22;;;17.92;85.05
19751;BME280;4663;49.120;9.730;2022-10-16T12:43:34;98242.47;;;17.83;84.69
19751;BME280;4663;49.120;9.730;2022-10-16T12:46:03;98247.63;;;17.92;85.75
19751;BME280;4663;49.120;9.730;2022-10-16T12:48:29;98257.34;;;17.88;87.67
19751;BME280;4663;49.120;9.730;2022-10-16T12:50:56;98253.09;;;17.73;85.34
19751;BME280;4663;49.120;9.730;2022-10-16T12:53:24;98248.38;;;17.80;86.47
19751;BME280;4663;49.120;9.730;2022-10-16T12:56:20;98253.84;;;17.80;85.47
19751;BME280;4663;49.120;9.730;2022-10-16T13:01:53;98255.66;;;17.68;86.26
19751;BME280;4663;49.120;9.730;2022-10-16T13:17:22;98254.22;;;17.46;85.39
19751;BME280;4663;49.120;9.730;2022-10-16T13:20:17;98257.25;;;17.57;85.81
19751;BME280;4663;49.120;9.730;2022-10-16T13:23:16;98250.31;;;17.17;85.57
19751;BME280;4663;49.120;9.730;2022-10-16T13:28:38;98258.94;;;17.14;87.29
19751;BME280;4663;49.120;9.730;2022-10-16T13:31:05;98253.72;;;17.12;85.38
19751;BME280;4663;49.120;9.730;2022-10-16T13:33:41;98260.31;;;17.23;86.74
19751;BME280;4663;49.120;9.730;2022-10-16T13:36:19;98262.66;;;17.45;86.35
19751;BME280;4663;49.120;9.730;2022-10-16T13:38:45;98266.31;;;17.06;87.39
19751;BME280;4663;49.120;9.730;2022-10-16T13:41:17;98264.63;;;17.12;86.05
19751;BME280;4663;49.120;9.730;2022-10-16T13:43:45;98266.91;;;17.08;86.55
19751;BME280;4663;49.120;9.730;2022-10-16T13:46:19;98263.50;;;17.20;87.56
19751;BME280;4663;49.120;9.730;2022-10-16T13:48:56;98272.75;;;17.19;87.31
19751;BME280;4663;49.120;9.730;2022-10-16T13:51:22;98264.56;;;17.19;87.36
19751;BME280;4663;49.120;9.730;2022-10-16T13:53:51;98266.19;;;16.94;87.53
19751;BME280;4663;49.120;9.730;2022-10-16T13:56:19;98270.56;;;17.02;89.32
19751;BME280;4663;49.120;9.730;2022-10-16T13:58:46;98273.88;;;17.04;89.36
19751;BME280;4663;49.120;9.730;2022-10-16T14:01:22;98262.72;;;16.87;89.18
19751;BME280;4663;49.120;9.730;2022-10-16T14:03:49;98271.34;;;17.10;89.68
19751;BME280;4663;49.120;9.730;2022-10-16T14:06:18;98285.97;;;16.90;89.86
19751;BME280;4663;49.120;9.730;2022-10-16T14:08:57;98277.91;;;16.69;90.68
19751;BME280;4663;49.120;9.730;2022-10-16T14:11:24;98287.09;;;16.75;89.73
19751;BME280;4663;49.120;9.730;2022-10-16T14:13:51;98277.69;;;16.71;89.59
19751;BME280;4663;49.120;9.730;2022-10-16T14:16:22;98279.63;;;16.64;89.75
19751;BME280;4663;49.120;9.730;2022-10-16T14:19:03;98276.81;;;16.45;92.05
19751;BME280;4663;49.120;9.730;2022-10-16T14:21:32;98279.81;;;16.30;93.20
19751;BME280;4663;49.120;9.730;2022-10-16T14:23:58;98273.47;;;16.43;91.14
19751;BME280;4663;49.120;9.730;2022-10-16T14:26:27;98266.41;;;16.28;92.72
19751;BME280;4663;49.120;9.730;2022-10-16T14:29:25;98269.59;;;16.18;94.54
19751;BME280;4663;49.120;9.730;2022-10-16T14:32:03;98271.03;;;16.21;94.59
19751;BME280;4663;49.120;9.730;2022-10-16T14:34:30;98262.19;;;16.33;93.05
19751;BME280;4663;49.120;9.730;2022-10-16T14:37:00;98257.53;;;16.47;93.39
19751;BME280;4663;49.120;9.730;2022-10-16T14:39:27;98264.25;;;16.44;92.14
19751;BME280;4663;49.120;9.730;2022-10-16T14:41:55;98265.97;;;16.38;90.11
19751;BME280;4663;49.120;9.730;2022-10-16T14:44:27;98273.38;;;16.17;89.66
19751;BME280;4663;49.120;9.730;2022-10-16T14:46:53;98273.16;;;16.19;90.25
19751;BME280;4663;49.120;9.730;2022-10-16T14:49:20;98274.03;;;16.13;92.45
19751;BME280;4663;49.120;9.730;2022-10-16T14:51:47;98273.56;;;16.23;92.45
19751;BME280;4663;49.120;9.730;2022-10-16T14:54:15;98270.34;;;16.39;90.58
19751;BME280;4663;49.120;9.730;2022-10-16T14:56:50;98273.31;;;16.38;90.39
19751;BME280;4663;49.120;9.730;2022-10-16T15:01:45;98280.84;;;15.90;93.66
19751;BME280;4663;49.120;9.730;2022-10-16T15:04:12;98285.66;;;15.88;93.87
19751;BME280;4663;49.120;9.730;2022-10-16T15:06:37;98288.56;;;15.86;94.97